sensor_id;sensor_type;location;lat;lon;timestamp;pressure;altitude;pressure_sealevel;temperature;humidity
44441;BME280;30146;52.268;20.944;2023-05-03T00:00:31;101022.17;;;11.90;52.13
44441;BME280;30146;52.268;20.944;2023-05-03T00:03:01;101018.38;;;11.87;52.09
44441;BME280;30146;52.268;20.944;2023-05-03T00:05:33;101014.10;;;11.86;52.29
44441;BME280;30146;52.268;20.944;2023-05-03T00:08:04;101013.93;;;11.86;52.26
44441;BME280;30146;52.268;20.944;2023-05-03T00:10:35;101017.02;;;11.87;52.27
44441;BME280;30146;52.268;20.944;2023-05-03T00:13:06;101016.83;;;11.87;52.16
44441;BME280;30146;52.268;20.944;2023-05-03T00:15:37;101017.70;;;11.87;52.08
44441;BME280;30146;52.268;20.944;2023-05-03T00:18:07;101017.36;;;11.86;52.06
44441;BME280;30146;52.268;20.944;2023-05-03T00:20:38;101013.60;;;11.83;51.94
44441;BME280;30146;52.268;20.944;2023-05-03T00:23:10;101018.92;;;11.80;51.84
44441;BME280;30146;52.268;20.944;2023-05-03T00:25:40;101021.33;;;11.76;51.74
44441;BME280;30146;52.268;20.944;2023-05-03T00:28:11;101020.83;;;11.73;51.49
44441;BME280;30146;52.268;20.944;2023-05-03T00:30:42;101017.93;;;11.68;51.40
44441;BME280;30146;52.268;20.944;2023-05-03T00:33:13;101013.48;;;11.66;51.28
44441;BME280;30146;52.268;20.944;2023-05-03T00:35:44;101006.48;;;11.63;51.12
44441;BME280;30146;52.268;20.944;2023-05-03T00:38:15;101005.13;;;11.60;51.01
44441;BME280;30146;52.268;20.944;2023-05-03T00:40:49;101002.40;;;11.58;50.98
44441;BME280;30146;52.268;20.944;2023-05-03T00:43:22;101000.34;;;11.57;50.95
44441;BME280;30146;52.268;20.944;2023-05-03T00:45:54;101001.20;;;11.55;50.89
44441;BME280;30146;52.268;20.944;2023-05-03T00:48:41;101004.79;;;11.51;50.81
44441;BME280;30146;52.268;20.944;2023-05-03T00:51:13;101007.36;;;11.49;50.69
44441;BME280;30146;52.268;20.944;2023-05-03T00:53:45;101010.11;;;11.46;50.65
44441;BME280;30146;52.268;20.944;2023-05-03T00:56:18;101016.98;;;11.46;50.73
44441;BME280;30146;52.268;20.944;2023-05-03T00:58:52;101019.53;;;11.46;50.87
44441;BME280;30146;52.268;20.944;2023-05-03T01:01:23;101025.70;;;11.43;50.72
44441;BME280;30146;52.268;20.944;2023-05-03T01:03:55;101033.59;;;11.40;50.97
44441;BME280;30146;52.268;20.944;2023-05-03T01:06:34;101033.77;;;11.37;50.84
44441;BME280;30146;52.268;20.944;2023-05-03T01:09:14;101034.61;;;11.35;51.09
44441;BME280;30146;52.268;20.944;2023-05-03T01:11:51;101039.08;;;11.33;50.98
44441;BME280;30146;52.268;20.944;2023-05-03T01:14:35;101040.96;;;11.31;51.12
44441;BME280;30146;52.268;20.944;2023-05-03T01:17:13;101041.65;;;11.32;51.06
44441;BME280;30146;52.268;20.944;2023-05-03T01:19:46;101041.98;;;11.30;51.05
44441;BME280;30146;52.268;20.944;2023-05-03T01:22:25;101045.08;;;11.26;50.98
44441;BME280;30146;52.268;20.944;2023-05-03T01:25:02;101047.81;;;11.22;51.02
44441;BME280;30146;52.268;20.944;2023-05-03T01:27:36;101044.91;;;11.18;51.12
44441;BME280;30146;52.268;20.944;2023-05-03T01:30:10;101050.05;;;11.15;51.24
44441;BME280;30146;52.268;20.944;2023-05-03T01:32:51;101050.73;;;11.13;51.37
44441;BME280;30146;52.268;20.944;2023-05-03T01:35:30;101054.84;;;11.11;51.43
44441;BME280;30146;52.268;20.944;2023-05-03T01:38:05;101052.27;;;11.07;51.27
44441;BME280;30146;52.268;20.944;2023-05-03T01:40:41;101056.71;;;11.03;51.39
44441;BME280;30146;52.268;20.944;2023-05-03T01:43:14;101063.73;;;10.99;51.36
44441;BME280;30146;52.268;20.944;2023-05-03T01:45:46;101068.70;;;10.96;51.24
44441;BME280;30146;52.268;20.944;2023-05-03T01:48:18;101071.94;;;10.90;51.34
44441;BME280;30146;52.268;20.944;2023-05-03T01:50:49;101073.48;;;10.85;51.51
44441;BME280;30146;52.268;20.944;2023-05-03T01:53:20;101069.20;;;10.84;51.57
44441;BME280;30146;52.268;20.944;2023-05-03T01:55:51;101070.90;;;10.83;51.84
44441;BME280;30146;52.268;20.944;2023-05-03T01:58:23;101071.23;;;10.81;51.75
44441;BME280;30146;52.268;20.944;2023-05-03T02:01:14;101068.17;;;10.81;51.96
44441;BME280;30146;52.268;20.944;2023-05-03T02:03:45;101065.77;;;10.80;52.23
44441;BME280;30146;52.268;20.944;2023-05-03T02:06:18;101062.86;;;10.80;52.35
44441;BME280;30146;52.268;20.944;2023-05-03T02:08:49;101063.55;;;10.81;52.52
44441;BME280;30146;52.268;20.944;2023-05-03T02:11:20;101060.13;;;10.80;52.54
44441;BME280;30146;52.268;20.944;2023-05-03T02:13:59;101059.10;;;10.78;52.49
44441;BME280;30146;52.268;20.944;2023-05-03T02:16:30;101058.42;;;10.77;52.64
44441;BME280;30146;52.268;20.944;2023-05-03T02:19:02;101058.91;;;10.75;52.53
44441;BME280;30146;52.268;20.944;2023-05-03T02:21:34;101064.73;;;10.74;52.83
44441;BME280;30146;52.268;20.944;2023-05-03T02:24:06;101072.27;;;10.72;52.56
44441;BME280;30146;52.268;20.944;2023-05-03T02:26:37;101067.13;;;10.72;52.60
44441;BME280;30146;52.268;20.944;2023-05-03T02:29:08;101075.34;;;10.73;52.66
44441;BME280;30146;52.268;20.944;2023-05-03T02:31:38;101081.84;;;10.74;53.04
44441;BME280;30146;52.268;20.944;2023-05-03T02:34:10;101091.41;;;10.74;52.74
44441;BME280;30146;52.268;20.944;2023-05-03T02:36:40;101091.23;;;10.75;52.98
44441;BME280;30146;52.268;20.944;2023-05-03T02:39:11;101086.98;;;10.76;52.95
44441;BME280;30146;52.268;20.944;2023-05-03T02:41:43;101081.51;;;10.77;53.06
44441;BME280;30146;52.268;20.944;2023-05-03T02:44:14;101082.02;;;10.77;53.03
44441;BME280;30146;52.268;20.944;2023-05-03T02:46:45;101082.88;;;10.77;52.96
44441;BME280;30146;52.268;20.944;2023-05-03T02:49:17;101086.13;;;10.79;53.08
44441;BME280;30146;52.268;20.944;2023-05-03T02:51:47;101085.10;;;10.81;53.11
44441;BME280;30146;52.268;20.944;2023-05-03T02:54:18;101083.21;;;10.81;53.00
44441;BME280;30146;52.268;20.944;2023-05-03T02:56:50;101080.31;;;10.81;53.01
44441;BME280;30146;52.268;20.944;2023-05-03T02:59:21;101083.20;;;10.81;52.80
44441;BME280;30146;52.268;20.944;2023-05-03T03:01:52;101081.50;;;10.79;52.51
44441;BME280;30146;52.268;20.944;2023-05-03T03:04:23;101083.38;;;10.77;52.41
44441;BME280;30146;52.268;20.944;2023-05-03T03:06:55;101085.95;;;10.75;52.42
44441;BME280;30146;52.268;20.944;2023-05-03T03:09:26;101090.20;;;10.74;52.62
44441;BME280;30146;52.268;20.944;2023-05-03T03:11:57;101089.01;;;10.71;52.47
44441;BME280;30146;52.268;20.944;2023-05-03T03:14:28;101090.88;;;10.67;52.54
44441;BME280;30146;52.268;20.944;2023-05-03T03:16:59;101089.17;;;10.63;52.61
44441;BME280;30146;52.268;20.944;2023-05-03T03:19:30;101092.05;;;10.60;52.59
44441;BME280;30146;52.268;20.944;2023-05-03T03:22:01;101093.42;;;10.58;52.79
44441;BME280;30146;52.268;20.944;2023-05-03T03:24:33;101092.40;;;10.55;52.65
44441;BME280;30146;52.268;20.944;2023-05-03T03:27:05;101105.05;;;10.54;52.78
44441;BME280;30146;52.268;20.944;2023-05-03T03:29:36;101105.03;;;10.53;52.77
44441;BME280;30146;52.268;20.944;2023-05-03T03:32:07;101107.77;;;10.52;52.80
44441;BME280;30146;52.268;20.944;2023-05-03T03:34:38;101109.83;;;10.54;53.11
44441;BME280;30146;52.268;20.944;2023-05-03T03:37:09;101115.47;;;10.55;53.06
44441;BME280;30146;52.268;20.944;2023-05-03T03:39:40;101114.63;;;10.59;53.01
44441;BME280;30146;52.268;20.944;2023-05-03T03:42:12;101114.98;;;10.60;52.82
44441;BME280;30146;52.268;20.944;2023-05-03T03:44:43;101117.54;;;10.61;52.84
44441;BME280;30146;52.268;20.944;2023-05-03T03:47:15;101120.80;;;10.63;52.85
44441;BME280;30146;52.268;20.944;2023-05-03T03:49:46;101123.02;;;10.65;52.96
44441;BME280;30146;52.268;20.944;2023-05-03T03:52:17;101119.27;;;10.64;52.63
44441;BME280;30146;52.268;20.944;2023-05-03T03:54:47;101118.58;;;10.63;52.63
44441;BME280;30146;52.268;20.944;2023-05-03T03:57:19;101134.13;;;10.61;52.47
44441;BME280;30146;52.268;20.944;2023-05-03T03:59:49;101136.35;;;10.57;52.23
44441;BME280;30146;52.268;20.944;2023-05-03T04:02:20;101139.76;;;10.58;52.49
44441;BME280;30146;52.268;20.944;2023-05-03T04:04:53;101147.80;;;10.59;52.42
44441;BME280;30146;52.268;20.944;2023-05-03T04:07:24;101148.81;;;10.59;52.20
44441;BME280;30146;52.268;20.944;2023-05-03T04:09:55;101152.26;;;10.62;52.33
44441;BME280;30146;52.268;20.944;2023-05-03T04:12:27;101158.25;;;10.63;52.41
44441;BME280;30146;52.268;20.944;2023-05-03T04:14:58;101162.35;;;10.64;52.14
44441;BME280;30146;52.268;20.944;2023-05-03T04:17:30;101164.92;;;10.65;52.05
44441;BME280;30146;52.268;20.944;2023-05-03T04:20:05;101160.82;;;10.70;52.23
44441;BME280;30146;52.268;20.944;2023-05-03T04:22:40;101160.50;;;10.76;52.21
44441;BME280;30146;52.268;20.944;2023-05-03T04:25:12;101162.05;;;10.82;52.31
44441;BME280;30146;52.268;20.944;2023-05-03T04:27:44;101163.45;;;10.94;52.29
44441;BME280;30146;52.268;20.944;2023-05-03T04:30:16;101165.37;;;11.11;52.23
44441;BME280;30146;52.268;20.944;2023-05-03T04:32:49;101164.88;;;11.28;52.24
44441;BME280;30146;52.268;20.944;2023-05-03T04:35:24;101166.42;;;11.44;51.83
44441;BME280;30146;52.268;20.944;2023-05-03T04:37:55;101171.21;;;11.66;51.86
44441;BME280;30146;52.268;20.944;2023-05-03T04:40:27;101169.98;;;12.04;51.96
44441;BME280;30146;52.268;20.944;2023-05-03T04:43:04;101171.95;;;12.38;51.85
44441;BME280;30146;52.268;20.944;2023-05-03T04:45:37;101180.20;;;12.76;51.82
44441;BME280;30146;52.268;20.944;2023-05-03T04:48:10;101179.73;;;13.46;52.23
44441;BME280;30146;52.268;20.944;2023-05-03T04:50:42;101173.78;;;14.45;52.36
44441;BME280;30146;52.268;20.944;2023-05-03T04:53:14;101175.29;;;15.03;50.79
44441;BME280;30146;52.268;20.944;2023-05-03T04:55:47;101171.86;;;15.25;49.30
44441;BME280;30146;52.268;20.944;2023-05-03T04:58:19;101173.56;;;15.26;47.93
44441;BME280;30146;52.268;20.944;2023-05-03T05:00:50;101176.64;;;15.16;47.15
44441;BME280;30146;52.268;20.944;2023-05-03T05:03:26;101184.38;;;15.05;46.64
44441;BME280;30146;52.268;20.944;2023-05-03T05:05:57;101191.30;;;15.04;46.72
44441;BME280;30146;52.268;20.944;2023-05-03T05:08:27;101197.63;;;15.39;47.61
44441;BME280;30146;52.268;20.944;2023-05-03T05:10:59;101196.74;;;16.23;48.52
44441;BME280;30146;52.268;20.944;2023-05-03T05:13:32;101192.27;;;17.13;48.11
44441;BME280;30146;52.268;20.944;2023-05-03T05:16:03;101191.23;;;17.98;46.94
44441;BME280;30146;52.268;20.944;2023-05-03T05:18:35;101196.07;;;18.79;45.77
44441;BME280;30146;52.268;20.944;2023-05-03T05:21:07;101196.92;;;19.62;44.60
44441;BME280;30146;52.268;20.944;2023-05-03T05:23:39;101201.67;;;20.50;43.90
44441;BME280;30146;52.268;20.944;2023-05-03T05:26:09;101208.39;;;21.33;43.19
44441;BME280;30146;52.268;20.944;2023-05-03T05:28:40;101201.88;;;22.06;42.11
44441;BME280;30146;52.268;20.944;2023-05-03T05:31:11;101202.58;;;22.80;41.85
44441;BME280;30146;52.268;20.944;2023-05-03T05:33:43;101200.63;;;23.60;41.18
44441;BME280;30146;52.268;20.944;2023-05-03T05:36:16;101203.30;;;24.37;40.41
44441;BME280;30146;52.268;20.944;2023-05-03T05:38:47;101206.59;;;25.15;39.59
44441;BME280;30146;52.268;20.944;2023-05-03T05:41:17;101205.54;;;25.87;38.59
44441;BME280;30146;52.268;20.944;2023-05-03T05:43:49;101200.67;;;26.56;37.50
44441;BME280;30146;52.268;20.944;2023-05-03T05:46:20;101205.58;;;27.14;36.43
44441;BME280;30146;52.268;20.944;2023-05-03T05:48:53;101207.33;;;27.69;35.38
44441;BME280;30146;52.268;20.944;2023-05-03T05:51:24;101210.14;;;28.13;34.35
44441;BME280;30146;52.268;20.944;2023-05-03T05:53:56;101211.70;;;28.49;33.04
44441;BME280;30146;52.268;20.944;2023-05-03T05:56:27;101218.21;;;28.81;32.37
44441;BME280;30146;52.268;20.944;2023-05-03T05:58:58;101221.81;;;29.09;31.31
44441;BME280;30146;52.268;20.944;2023-05-03T06:01:29;101224.05;;;29.32;30.61
44441;BME280;30146;52.268;20.944;2023-05-03T06:04:02;101226.20;;;29.55;30.29
44441;BME280;30146;52.268;20.944;2023-05-03T06:06:33;101230.12;;;29.80;29.57
44441;BME280;30146;52.268;20.944;2023-05-03T06:09:04;101232.04;;;30.10;29.35
44441;BME280;30146;52.268;20.944;2023-05-03T06:11:55;101231.88;;;30.48;28.93
44441;BME280;30146;52.268;20.944;2023-05-03T06:14:28;101237.68;;;30.77;28.20
44441;BME280;30146;52.268;20.944;2023-05-03T06:16:59;101234.64;;;31.06;27.63
44441;BME280;30146;52.268;20.944;2023-05-03T06:19:30;101238.84;;;31.39;27.13
44441;BME280;30146;52.268;20.944;2023-05-03T06:22:01;101241.83;;;31.60;26.17
44441;BME280;30146;52.268;20.944;2023-05-03T06:24:33;101242.52;;;31.77;25.82
44441;BME280;30146;52.268;20.944;2023-05-03T06:27:04;101236.15;;;31.94;25.00
44441;BME280;30146;52.268;20.944;2023-05-03T06:29:35;101242.73;;;31.96;24.74
44441;BME280;30146;52.268;20.944;2023-05-03T06:32:07;101244.88;;;31.97;24.32
44441;BME280;30146;52.268;20.944;2023-05-03T06:34:37;101244.19;;;32.10;24.03
44441;BME280;30146;52.268;20.944;2023-05-03T06:37:11;101248.84;;;32.42;24.06
44441;BME280;30146;52.268;20.944;2023-05-03T06:39:42;101248.12;;;32.68;23.61
44441;BME280;30146;52.268;20.944;2023-05-03T06:42:13;101242.91;;;32.83;22.90
44441;BME280;30146;52.268;20.944;2023-05-03T06:44:44;101240.02;;;33.07;22.95
44441;BME280;30146;52.268;20.944;2023-05-03T06:47:16;101240.05;;;33.23;21.99
44441;BME280;30146;52.268;20.944;2023-05-03T06:49:49;101244.23;;;33.35;21.91
44441;BME280;30146;52.268;20.944;2023-05-03T06:52:19;101247.90;;;33.55;21.97
44441;BME280;30146;52.268;20.944;2023-05-03T06:54:50;101252.14;;;33.75;21.64
44441;BME280;30146;52.268;20.944;2023-05-03T06:57:22;101255.05;;;33.80;21.35
44441;BME280;30146;52.268;20.944;2023-05-03T06:59:57;101255.47;;;33.88;21.00
44441;BME280;30146;52.268;20.944;2023-05-03T07:02:27;101254.67;;;34.02;20.82
44441;BME280;30146;52.268;20.944;2023-05-03T07:04:58;101251.92;;;34.11;20.59
44441;BME280;30146;52.268;20.944;2023-05-03T07:07:29;101254.99;;;34.14;20.28
44441;BME280;30146;52.268;20.944;2023-05-03T07:10:00;101258.08;;;33.98;20.03
44441;BME280;30146;52.268;20.944;2023-05-03T07:12:32;101257.11;;;33.97;20.39
44441;BME280;30146;52.268;20.944;2023-05-03T07:15:03;101257.70;;;34.00;20.41
44441;BME280;30146;52.268;20.944;2023-05-03T07:17:37;101253.33;;;33.81;20.29
44441;BME280;30146;52.268;20.944;2023-05-03T07:20:09;101253.03;;;33.57;20.67
44441;BME280;30146;52.268;20.944;2023-05-03T07:22:40;101247.60;;;33.35;20.86
44441;BME280;30146;52.268;20.944;2023-05-03T07:25:11;101251.79;;;33.07;20.92
44441;BME280;30146;52.268;20.944;2023-05-03T07:27:45;101253.90;;;32.77;20.93
44441;BME280;30146;52.268;20.944;2023-05-03T07:30:16;101256.26;;;32.26;20.77
44441;BME280;30146;52.268;20.944;2023-05-03T07:32:47;101257.96;;;31.55;20.48
44441;BME280;30146;52.268;20.944;2023-05-03T07:35:19;101260.49;;;30.96;20.56
44441;BME280;30146;52.268;20.944;2023-05-03T07:37:51;101258.84;;;30.51;20.83
44441;BME280;30146;52.268;20.944;2023-05-03T07:40:22;101262.06;;;30.18;20.91
44441;BME280;30146;52.268;20.944;2023-05-03T07:42:53;101260.71;;;29.95;21.26
44441;BME280;30146;52.268;20.944;2023-05-03T07:45:24;101263.49;;;29.77;21.36
44441;BME280;30146;52.268;20.944;2023-05-03T07:47:56;101265.02;;;29.51;21.39
44441;BME280;30146;52.268;20.944;2023-05-03T07:50:27;101261.26;;;29.09;21.29
44441;BME280;30146;52.268;20.944;2023-05-03T07:52:58;101257.11;;;28.73;21.59
44441;BME280;30146;52.268;20.944;2023-05-03T07:55:29;101259.03;;;28.33;21.46
44441;BME280;30146;52.268;20.944;2023-05-03T07:58:01;101258.99;;;27.90;21.52
44441;BME280;30146;52.268;20.944;2023-05-03T08:00:33;101261.97;;;27.40;21.73
44441;BME280;30146;52.268;20.944;2023-05-03T08:03:04;101254.67;;;27.09;22.11
44441;BME280;30146;52.268;20.944;2023-05-03T08:05:35;101253.98;;;26.89;22.46
44441;BME280;30146;52.268;20.944;2023-05-03T08:08:06;101251.84;;;26.70;22.24
44441;BME280;30146;52.268;20.944;2023-05-03T08:10:37;101259.55;;;26.30;22.44
44441;BME280;30146;52.268;20.944;2023-05-03T08:13:08;101263.22;;;25.86;22.47
44441;BME280;30146;52.268;20.944;2023-05-03T08:15:40;101262.75;;;25.43;22.52
44441;BME280;30146;52.268;20.944;2023-05-03T08:18:10;101267.68;;;25.01;22.82
44441;BME280;30146;52.268;20.944;2023-05-03T08:20:41;101263.33;;;24.72;23.33
44441;BME280;30146;52.268;20.944;2023-05-03T08:23:12;101263.23;;;24.44;23.63
44441;BME280;30146;52.268;20.944;2023-05-03T08:25:46;101262.88;;;24.10;23.70
44441;BME280;30146;52.268;20.944;2023-05-03T08:28:16;101265.27;;;23.91;23.89
44441;BME280;30146;52.268;20.944;2023-05-03T08:30:47;101264.42;;;23.69;24.12
44441;BME280;30146;52.268;20.944;2023-05-03T08:33:18;101265.39;;;23.56;24.45
44441;BME280;30146;52.268;20.944;2023-05-03T08:35:49;101266.66;;;23.55;24.69
44441;BME280;30146;52.268;20.944;2023-05-03T08:38:21;101262.94;;;23.56;24.74
44441;BME280;30146;52.268;20.944;2023-05-03T08:40:54;101258.66;;;23.54;25.03
44441;BME280;30146;52.268;20.944;2023-05-03T08:43:28;101258.79;;;23.42;24.91
44441;BME280;30146;52.268;20.944;2023-05-03T08:45:59;101263.83;;;23.20;25.01
44441;BME280;30146;52.268;20.944;2023-05-03T08:48:31;101268.11;;;22.95;24.66
44441;BME280;30146;52.268;20.944;2023-05-03T08:51:04;101266.86;;;22.81;25.01
44441;BME280;30146;52.268;20.944;2023-05-03T08:53:38;101267.41;;;22.80;25.45
44441;BME280;30146;52.268;20.944;2023-05-03T08:56:10;101263.81;;;22.82;25.50
44441;BME280;30146;52.268;20.944;2023-05-03T08:58:41;101267.10;;;22.91;25.80
44441;BME280;30146;52.268;20.944;2023-05-03T09:01:13;101276.32;;;22.99;25.87
44441;BME280;30146;52.268;20.944;2023-05-03T09:03:49;101273.09;;;22.93;25.72
44441;BME280;30146;52.268;20.944;2023-05-03T09:06:22;101273.48;;;22.88;25.56
44441;BME280;30146;52.268;20.944;2023-05-03T09:08:55;101276.98;;;22.92;25.79
44441;BME280;30146;52.268;20.944;2023-05-03T09:11:27;101276.98;;;22.99;26.02
44441;BME280;30146;52.268;20.944;2023-05-03T09:14:10;101272.37;;;23.13;25.99
44441;BME280;30146;52.268;20.944;2023-05-03T09:16:43;101267.94;;;23.11;25.58
44441;BME280;30146;52.268;20.944;2023-05-03T09:19:16;101268.23;;;22.81;24.93
44441;BME280;30146;52.268;20.944;2023-05-03T09:21:47;101280.15;;;22.36;24.78
44441;BME280;30146;52.268;20.944;2023-05-03T09:24:18;101281.95;;;21.98;25.07
44441;BME280;30146;52.268;20.944;2023-05-03T09:26:50;101279.01;;;21.81;25.29
44441;BME280;30146;52.268;20.944;2023-05-03T09:29:30;101276.91;;;21.68;25.35
44441;BME280;30146;52.268;20.944;2023-05-03T09:32:02;101281.23;;;21.61;25.49
44441;BME280;30146;52.268;20.944;2023-05-03T09:34:35;101285.41;;;21.52;25.87
44441;BME280;30146;52.268;20.944;2023-05-03T09:37:06;101287.09;;;21.49;25.92
44441;BME280;30146;52.268;20.944;2023-05-03T09:39:37;101284.02;;;21.56;25.89
44441;BME280;30146;52.268;20.944;2023-05-03T09:42:16;101284.70;;;21.61;25.63
44441;BME280;30146;52.268;20.944;2023-05-03T09:44:48;101282.34;;;21.63;25.52
44441;BME280;30146;52.268;20.944;2023-05-03T09:47:20;101278.99;;;21.60;25.43
44441;BME280;30146;52.268;20.944;2023-05-03T09:49:54;101278.41;;;21.49;25.36
44441;BME280;30146;52.268;20.944;2023-05-03T09:52:25;101285.83;;;21.36;25.64
44441;BME280;30146;52.268;20.944;2023-05-03T09:54:58;101284.06;;;21.42;26.06
44441;BME280;30146;52.268;20.944;2023-05-03T09:57:30;101283.52;;;21.52;26.16
44441;BME280;30146;52.268;20.944;2023-05-03T10:00:03;101280.17;;;21.61;26.26
44441;BME280;30146;52.268;20.944;2023-05-03T10:02:40;101278.74;;;21.79;26.23
44441;BME280;30146;52.268;20.944;2023-05-03T10:05:15;101279.30;;;21.95;26.01
44441;BME280;30146;52.268;20.944;2023-05-03T10:07:48;101280.64;;;22.12;26.07
44441;BME280;30146;52.268;20.944;2023-05-03T10:10:21;101274.85;;;22.30;25.96
44441;BME280;30146;52.268;20.944;2023-05-03T10:12:52;101280.44;;;22.42;25.73
44441;BME280;30146;52.268;20.944;2023-05-03T10:15:26;101284.64;;;22.42;25.54
44441;BME280;30146;52.268;20.944;2023-05-03T10:18:01;101288.89;;;22.28;25.61
44441;BME280;30146;52.268;20.944;2023-05-03T10:20:40;101290.77;;;22.12;25.62
44441;BME280;30146;52.268;20.944;2023-05-03T10:23:14;101288.17;;;22.07;25.75
44441;BME280;30146;52.268;20.944;2023-05-03T10:28:46;101277.48;;;22.13;25.75
44441;BME280;30146;52.268;20.944;2023-05-03T10:31:45;101276.41;;;22.18;25.74
44441;BME280;30146;52.268;20.944;2023-05-03T10:34:24;101279.06;;;22.01;25.63
44441;BME280;30146;52.268;20.944;2023-05-03T10:36:55;101280.98;;;21.83;25.63
44441;BME280;30146;52.268;20.944;2023-05-03T10:39:27;101281.14;;;21.63;25.36
44441;BME280;30146;52.268;20.944;2023-05-03T10:42:00;101285.80;;;21.46;25.81
44441;BME280;30146;52.268;20.944;2023-05-03T10:44:39;101280.30;;;21.40;25.88
44441;BME280;30146;52.268;20.944;2023-05-03T10:47:15;101280.69;;;21.39;26.15
44441;BME280;30146;52.268;20.944;2023-05-03T10:49:48;101279.85;;;21.33;25.97
44441;BME280;30146;52.268;20.944;2023-05-03T10:52:50;101283.56;;;21.36;26.21
44441;BME280;30146;52.268;20.944;2023-05-03T10:55:26;101273.09;;;21.33;26.16
44441;BME280;30146;52.268;20.944;2023-05-03T10:57:58;101273.54;;;21.21;26.17
44441;BME280;30146;52.268;20.944;2023-05-03T11:00:34;101272.02;;;21.11;26.00
44441;BME280;30146;52.268;20.944;2023-05-03T11:05:57;101273.04;;;20.60;25.88
44441;BME280;30146;52.268;20.944;2023-05-03T11:08:28;101281.79;;;20.39;26.10
44441;BME280;30146;52.268;20.944;2023-05-03T11:11:06;101278.88;;;20.18;26.16
44441;BME280;30146;52.268;20.944;2023-05-03T11:13:38;101279.00;;;19.93;26.28
44441;BME280;30146;52.268;20.944;2023-05-03T11:16:09;101288.77;;;19.71;26.14
44441;BME280;30146;52.268;20.944;2023-05-03T11:18:40;101289.95;;;19.49;26.45
44441;BME280;30146;52.268;20.944;2023-05-03T11:21:12;101287.95;;;19.35;26.77
44441;BME280;30146;52.268;20.944;2023-05-03T11:23:43;101287.48;;;19.22;27.00
44441;BME280;30146;52.268;20.944;2023-05-03T11:26:15;101290.05;;;19.17;27.08
44441;BME280;30146;52.268;20.944;2023-05-03T11:28:46;101283.42;;;19.13;27.07
44441;BME280;30146;52.268;20.944;2023-05-03T11:31:17;101287.27;;;19.17;27.53
44441;BME280;30146;52.268;20.944;2023-05-03T11:33:51;101284.61;;;19.26;27.39
44441;BME280;30146;52.268;20.944;2023-05-03T11:36:23;101288.83;;;19.34;27.52
44441;BME280;30146;52.268;20.944;2023-05-03T11:38:56;101291.46;;;19.45;27.68
44441;BME280;30146;52.268;20.944;2023-05-03T11:41:27;101292.45;;;19.52;27.35
44441;BME280;30146;52.268;20.944;2023-05-03T11:43:58;101292.41;;;19.59;27.26
44441;BME280;30146;52.268;20.944;2023-05-03T11:46:46;101280.58;;;19.66;26.97
44441;BME280;30146;52.268;20.944;2023-05-03T11:49:19;101285.36;;;19.68;26.98
44441;BME280;30146;52.268;20.944;2023-05-03T11:51:51;101282.63;;;19.72;27.08
44441;BME280;30146;52.268;20.944;2023-05-03T11:54:24;101280.34;;;19.79;26.93
44441;BME280;30146;52.268;20.944;2023-05-03T11:56:57;101282.77;;;19.84;26.85
44441;BME280;30146;52.268;20.944;2023-05-03T11:59:44;101282.41;;;19.90;26.81
44441;BME280;30146;52.268;20.944;2023-05-03T12:02:16;101282.67;;;19.93;26.70
44441;BME280;30146;52.268;20.944;2023-05-03T12:04:47;101280.70;;;19.89;26.69
44441;BME280;30146;52.268;20.944;2023-05-03T12:07:18;101279.86;;;19.83;26.79
44441;BME280;30146;52.268;20.944;2023-05-03T12:09:52;101284.03;;;19.72;26.74
44441;BME280;30146;52.268;20.944;2023-05-03T12:12:52;101285.60;;;19.55;26.75
44441;BME280;30146;52.268;20.944;2023-05-03T12:15:34;101287.88;;;19.37;26.87
44441;BME280;30146;52.268;20.944;2023-05-03T12:18:59;101279.89;;;19.15;26.77
44441;BME280;30146;52.268;20.944;2023-05-03T12:21:46;101284.76;;;18.92;26.84
44441;BME280;30146;52.268;20.944;2023-05-03T12:24:20;101279.34;;;18.80;27.07
44441;BME280;30146;52.268;20.944;2023-05-03T12:26:53;101273.36;;;18.77;27.22
44441;BME280;30146;52.268;20.944;2023-05-03T12:29:45;101271.91;;;18.79;27.36
44441;BME280;30146;52.268;20.944;2023-05-03T12:36:48;101273.77;;;18.69;27.34
44441;BME280;30146;52.268;20.944;2023-05-03T12:39:22;101271.01;;;18.62;27.34
44441;BME280;30146;52.268;20.944;2023-05-03T12:41:56;101268.89;;;18.57;27.26
44441;BME280;30146;52.268;20.944;2023-05-03T12:44:30;101269.65;;;18.49;27.28
44441;BME280;30146;52.268;20.944;2023-05-03T12:47:08;101270.77;;;18.40;27.42
44441;BME280;30146;52.268;20.944;2023-05-03T12:49:42;101268.62;;;18.29;27.31
44441;BME280;30146;52.268;20.944;2023-05-03T12:52:15;101267.53;;;18.18;27.58
44441;BME280;30146;52.268;20.944;2023-05-03T12:55:07;101264.55;;;18.06;27.86
44441;BME280;30146;52.268;20.944;2023-05-03T12:57:40;101265.55;;;17.94;28.00
44441;BME280;30146;52.268;20.944;2023-05-03T13:00:16;101263.01;;;17.85;28.13
44441;BME280;30146;52.268;20.944;2023-05-03T13:02:54;101260.03;;;17.78;28.19
44441;BME280;30146;52.268;20.944;2023-05-03T13:05:31;101258.63;;;17.72;28.43
44441;BME280;30146;52.268;20.944;2023-05-03T13:08:05;101258.70;;;17.69;28.73
44441;BME280;30146;52.268;20.944;2023-05-03T13:10:38;101257.10;;;17.71;28.70
44441;BME280;30146;52.268;20.944;2023-05-03T13:13:11;101257.87;;;17.75;28.68
44441;BME280;30146;52.268;20.944;2023-05-03T13:15:42;101257.33;;;17.76;28.52
44441;BME280;30146;52.268;20.944;2023-05-03T13:18:13;101255.05;;;17.77;28.70
44441;BME280;30146;52.268;20.944;2023-05-03T13:20:44;101257.05;;;17.80;28.61